createdAt,value
2022-10-01T00:02:08.019Z,17.87
2022-10-01T00:04:37.777Z,18.45
2022-10-01T00:07:10.713Z,17.85
2022-10-01T00:09:39.114Z,19.98
2022-10-01T00:12:07.304Z,24.67
2022-10-01T00:14:36.077Z,19.13
2022-10-01T00:17:04.146Z,19.45
2022-10-01T00:19:32.015Z,19.13
2022-10-01T00:21:59.785Z,19.42
2022-10-01T00:24:28.162Z,16.95
2022-10-01T00:26:56.204Z,18.93
2022-10-01T00:29:24.089Z,18.58
2022-10-01T00:31:52.190Z,19.13
2022-10-01T00:34:20.039Z,21.45
2022-10-01T00:36:48.229Z,21.15
2022-10-01T00:39:16.696Z,17.00
2022-10-01T00:41:44.384Z,20.02
2022-10-01T00:44:33.570Z,22.92
2022-10-01T00:47:06.885Z,17.02
2022-10-01T00:49:38.703Z,16.95
2022-10-01T00:52:14.134Z,19.50
2022-10-01T00:54:50.639Z,18.58
2022-10-01T00:57:23.416Z,20.33
2022-10-01T00:59:54.861Z,19.80
2022-10-01T01:02:23.085Z,19.58
2022-10-01T01:04:50.781Z,18.87
2022-10-01T01:07:19.124Z,22.85
2022-10-01T01:09:48.982Z,19.38
2022-10-01T01:12:25.257Z,21.70
2022-10-01T01:15:17.810Z,18.08
2022-10-01T01:17:55.162Z,22.87
2022-10-01T01:20:40.487Z,33.65
2022-10-01T01:23:17.289Z,21.67
2022-10-01T01:25:55.837Z,20.45
2022-10-01T01:28:41.162Z,19.25
2022-10-01T01:31:15.247Z,21.20
2022-10-01T01:33:46.597Z,19.83
2022-10-01T01:36:23.462Z,24.25
2022-10-01T01:38:55.947Z,32.60
2022-10-01T01:41:28.513Z,29.48
2022-10-01T01:44:00.963Z,28.70
2022-10-01T01:46:34.092Z,34.35
2022-10-01T01:49:04.755Z,39.78
2022-10-01T01:52:05.960Z,38.22
2022-10-01T01:54:36.808Z,38.10
2022-10-01T01:57:06.369Z,42.53
2022-10-01T01:59:35.061Z,44.10
2022-10-01T02:02:04.631Z,48.97
2022-10-01T02:04:48.950Z,47.63
2022-10-01T02:07:17.032Z,42.75
2022-10-01T02:09:51.855Z,40.03
2022-10-01T02:12:45.882Z,55.47
2022-10-01T02:15:42.263Z,46.05
2022-10-01T02:18:22.625Z,50.92
2022-10-01T02:21:00.509Z,38.97
2022-10-01T02:23:34.251Z,33.43
2022-10-01T02:26:18.490Z,42.30
2022-10-01T02:28:49.868Z,50.30
2022-10-01T02:31:20.058Z,37.55
2022-10-01T02:33:50.806Z,38.22
2022-10-01T02:36:21.569Z,40.53
2022-10-01T02:38:51.164Z,39.60
2022-10-01T02:41:25.286Z,66.70
2022-10-01T02:43:59.337Z,33.35
2022-10-01T02:46:38.016Z,48.20
2022-10-01T02:49:07.070Z,35.90
2022-10-01T02:51:44.808Z,43.70
2022-10-01T02:54:30.521Z,45.63
2022-10-01T02:57:17.326Z,40.33
2022-10-01T02:59:45.700Z,36.70
2022-10-01T03:02:13.577Z,42.77
2022-10-01T03:04:41.460Z,78.85
2022-10-01T03:07:09.718Z,44.65
2022-10-01T03:09:37.484Z,52.53
2022-10-01T03:12:06.865Z,74.00
2022-10-01T03:14:35.093Z,44.20
2022-10-01T03:17:03.033Z,39.53
2022-10-01T03:19:30.891Z,42.72
2022-10-01T03:21:59.023Z,46.17
2022-10-01T03:24:27.066Z,42.30
2022-10-01T03:26:57.141Z,41.27
2022-10-01T03:29:26.426Z,67.93
2022-10-01T03:31:54.472Z,46.60
2022-10-01T03:34:23.519Z,50.47
2022-10-01T03:36:52.759Z,44.97
2022-10-01T03:39:21.212Z,46.97
2022-10-01T03:41:48.879Z,44.95
2022-10-01T03:44:17.912Z,33.47
2022-10-01T03:46:45.600Z,38.13
2022-10-01T03:49:13.339Z,29.98
2022-10-01T03:51:41.569Z,29.00
2022-10-01T03:54:10.037Z,23.48
2022-10-01T03:56:38.736Z,25.50
2022-10-01T03:59:07.786Z,24.65
2022-10-01T04:01:35.739Z,22.25
2022-10-01T04:04:04.424Z,23.13
2022-10-01T04:06:32.861Z,21.40
2022-10-01T04:09:01.365Z,18.52
2022-10-01T04:11:29.041Z,16.83
2022-10-01T04:13:58.305Z,19.40
2022-10-01T04:16:26.026Z,18.33
2022-10-01T04:18:54.228Z,20.63
2022-10-01T04:21:22.499Z,22.92
2022-10-01T04:23:50.590Z,20.65
2022-10-01T04:26:19.432Z,22.35
2022-10-01T04:28:47.951Z,20.47
2022-10-01T04:31:25.001Z,28.15
2022-10-01T04:33:58.200Z,37.05
2022-10-01T04:36:42.849Z,31.45
2022-10-01T04:39:15.886Z,50.38
2022-10-01T04:41:43.664Z,32.77
2022-10-01T04:44:11.498Z,28.15
2022-10-01T04:46:40.280Z,27.27
2022-10-01T04:49:08.978Z,32.92
2022-10-01T04:51:51.179Z,21.88
2022-10-01T04:54:19.294Z,20.60
2022-10-01T04:56:47.968Z,20.60
2022-10-01T04:59:16.419Z,31.60
2022-10-01T05:01:44.216Z,17.25
2022-10-01T05:04:13.541Z,14.98
2022-10-01T05:06:41.909Z,16.27
2022-10-01T05:09:09.814Z,12.07
2022-10-01T05:11:39.401Z,13.05
2022-10-01T05:14:07.836Z,15.27
2022-10-01T05:16:35.861Z,10.80
2022-10-01T05:19:03.918Z,15.43
2022-10-01T05:21:32.567Z,14.65
2022-10-01T05:24:01.140Z,14.32
2022-10-01T05:26:29.933Z,16.20
2022-10-01T05:29:00.919Z,16.45
2022-10-01T05:31:29.640Z,14.90
2022-10-01T05:33:58.647Z,18.88
2022-10-01T05:36:26.916Z,17.27
2022-10-01T05:38:57.441Z,16.15
2022-10-01T05:41:27.749Z,13.93
2022-10-01T05:43:56.285Z,12.37
2022-10-01T05:46:24.171Z,17.45
2022-10-01T05:48:52.239Z,14.65
2022-10-01T05:51:20.292Z,13.77
2022-10-01T05:53:51.379Z,15.10
2022-10-01T05:56:19.597Z,11.40
2022-10-01T05:58:48.247Z,12.10
2022-10-01T06:01:15.936Z,14.43
2022-10-01T06:03:44.582Z,14.32
2022-10-01T06:06:13.146Z,23.00
2022-10-01T06:08:40.888Z,25.47
2022-10-01T06:11:18.721Z,24.00
2022-10-01T06:13:47.092Z,16.05
2022-10-01T06:16:15.340Z,19.75
2022-10-01T06:18:43.691Z,18.67
2022-10-01T06:21:11.740Z,19.33
2022-10-01T06:23:41.279Z,18.10
2022-10-01T06:26:09.171Z,20.77
2022-10-01T06:28:56.873Z,19.67
2022-10-01T06:31:30.883Z,19.33
2022-10-01T06:33:59.292Z,20.23
2022-10-01T06:36:27.337Z,22.38
2022-10-01T06:38:56.079Z,21.40
2022-10-01T06:41:25.360Z,23.27
2022-10-01T06:43:53.028Z,17.50
2022-10-01T06:46:20.938Z,18.03
2022-10-01T06:48:49.279Z,25.90
2022-10-01T06:51:37.186Z,43.28
2022-10-01T06:54:05.362Z,44.03
2022-10-01T06:56:33.054Z,49.25
2022-10-01T06:59:00.833Z,43.80
2022-10-01T07:01:28.947Z,31.77
2022-10-01T07:03:57.094Z,26.88
2022-10-01T07:06:26.283Z,27.98
2022-10-01T07:08:55.079Z,38.58
2022-10-01T07:11:22.886Z,29.10
2022-10-01T07:13:54.565Z,32.60
2022-10-01T07:16:23.082Z,31.33
2022-10-01T07:18:50.826Z,31.60
2022-10-01T07:21:18.555Z,24.17
2022-10-01T07:23:48.610Z,20.83
2022-10-01T07:26:16.651Z,18.33
2022-10-01T07:28:45.312Z,17.15
2022-10-01T07:31:13.940Z,18.15
2022-10-01T07:33:42.218Z,14.35
2022-10-01T07:36:13.997Z,16.80
2022-10-01T07:38:44.268Z,14.57
2022-10-01T07:41:12.261Z,17.30
2022-10-01T07:43:44.846Z,17.92
2022-10-01T07:46:13.325Z,15.45
2022-10-01T07:48:42.405Z,17.23
2022-10-01T07:51:10.228Z,15.48
2022-10-01T07:53:38.182Z,16.52
2022-10-01T07:56:08.812Z,15.57
2022-10-01T07:58:37.040Z,12.90
2022-10-01T08:01:05.624Z,15.57
2022-10-01T08:03:33.346Z,25.85
2022-10-01T08:06:03.938Z,14.73
2022-10-01T08:08:32.250Z,16.88
2022-10-01T08:11:02.790Z,11.77
2022-10-01T08:13:31.731Z,13.03
2022-10-01T08:16:02.720Z,9.77
2022-10-01T08:18:30.845Z,10.20
2022-10-01T08:21:02.466Z,11.80
2022-10-01T08:23:33.733Z,11.32
2022-10-01T08:26:07.798Z,13.20
2022-10-01T08:28:36.620Z,10.38
2022-10-01T08:31:07.935Z,13.80
2022-10-01T08:33:37.667Z,13.50
2022-10-01T08:36:10.229Z,13.32
2022-10-01T08:38:39.919Z,13.43
2022-10-01T08:41:23.334Z,12.18
2022-10-01T08:43:53.458Z,11.63
2022-10-01T08:46:25.264Z,11.02
2022-10-01T08:48:58.983Z,12.55
2022-10-01T08:51:45.393Z,13.97
2022-10-01T08:54:29.317Z,13.48
2022-10-01T08:57:01.458Z,13.05
2022-10-01T08:59:44.067Z,11.55
2022-10-01T09:02:33.109Z,9.10
2022-10-01T09:05:15.910Z,13.33
2022-10-01T09:08:10.019Z,10.02
2022-10-01T09:10:46.073Z,14.80
2022-10-01T09:13:16.889Z,11.93
2022-10-01T09:15:57.468Z,13.43
2022-10-01T09:19:02.761Z,11.40
2022-10-01T09:21:51.673Z,11.25
2022-10-01T09:24:22.716Z,15.77
2022-10-01T09:26:51.203Z,17.05
2022-10-01T09:29:40.196Z,18.00
2022-10-01T09:32:14.938Z,12.30
2022-10-01T09:34:45.280Z,15.75
2022-10-01T09:37:34.975Z,12.68
2022-10-01T09:40:24.762Z,15.43
2022-10-01T09:42:53.517Z,13.52
2022-10-01T09:45:24.067Z,9.13
2022-10-01T09:47:55.079Z,10.88
2022-10-01T09:50:41.588Z,16.40
2022-10-01T09:53:18.604Z,13.10
2022-10-01T09:55:59.857Z,10.95
2022-10-01T09:58:30.559Z,12.43
2022-10-01T10:01:00.317Z,9.07
2022-10-01T10:03:31.298Z,12.10
2022-10-01T10:06:00.376Z,15.73
2022-10-01T10:08:35.174Z,7.93
2022-10-01T10:11:11.642Z,8.53
2022-10-01T10:13:42.001Z,9.15
2022-10-01T10:16:18.706Z,8.88
2022-10-01T10:18:52.599Z,10.00
2022-10-01T10:21:26.934Z,7.25
2022-10-01T10:23:57.434Z,8.20
2022-10-01T10:26:41.118Z,8.90
2022-10-01T10:29:31.863Z,7.40
2022-10-01T10:32:05.370Z,6.55
2022-10-01T10:34:41.122Z,11.32
2022-10-01T10:37:15.429Z,6.53
2022-10-01T10:39:50.472Z,5.47
2022-10-01T10:42:20.266Z,6.72
2022-10-01T10:44:51.666Z,5.70
2022-10-01T10:47:22.663Z,6.55
2022-10-01T10:49:57.948Z,6.77
2022-10-01T10:52:32.645Z,7.82
2022-10-01T10:55:02.975Z,8.70
2022-10-01T10:57:35.126Z,13.45
2022-10-01T11:00:19.052Z,13.23
2022-10-01T11:03:06.902Z,80.77
2022-10-01T11:05:42.476Z,14.15
2022-10-01T11:08:17.902Z,8.57
2022-10-01T11:11:21.450Z,17.38
2022-10-01T11:13:51.858Z,19.17
2022-10-01T11:16:24.742Z,9.17
2022-10-01T11:19:36.265Z,8.98
2022-10-01T11:22:26.218Z,7.68
2022-10-01T11:25:22.672Z,5.50
2022-10-01T11:28:00.149Z,5.43
2022-10-01T11:30:48.771Z,7.90
2022-10-01T11:33:20.317Z,7.38
2022-10-01T11:36:29.353Z,6.70
2022-10-01T11:39:04.531Z,7.68
2022-10-01T11:41:40.307Z,6.47
2022-10-01T11:44:26.769Z,7.87
2022-10-01T11:47:13.686Z,5.70
2022-10-01T11:49:48.428Z,8.88
2022-10-01T11:52:34.171Z,8.65
2022-10-01T11:55:29.243Z,8.80
2022-10-01T11:58:21.392Z,19.00
2022-10-01T12:01:00.466Z,29.20
2022-10-01T12:03:38.071Z,46.25
2022-10-01T12:06:10.967Z,43.10
2022-10-01T12:08:43.209Z,47.67
2022-10-01T12:11:20.863Z,21.40
2022-10-01T12:13:55.627Z,18.27
2022-10-01T12:16:45.237Z,30.13
2022-10-01T12:19:47.165Z,24.98
2022-10-01T12:22:49.312Z,46.13
2022-10-01T12:25:35.491Z,47.53
2022-10-01T12:28:13.341Z,63.47
2022-10-01T12:31:07.676Z,57.03
2022-10-01T12:34:00.108Z,50.20
2022-10-01T12:36:49.958Z,57.15
2022-10-01T12:40:01.445Z,34.60
2022-10-01T12:42:48.528Z,22.17
2022-10-01T12:45:44.172Z,12.00
2022-10-01T12:48:32.336Z,8.95
2022-10-01T12:51:09.255Z,9.57
2022-10-01T12:53:51.361Z,9.87
2022-10-01T12:56:37.391Z,9.68
2022-10-01T12:59:21.468Z,6.57
2022-10-01T13:02:03.481Z,19.33
2022-10-01T13:04:47.190Z,14.32
2022-10-01T13:07:49.385Z,10.93
2022-10-01T13:11:00.804Z,11.07
2022-10-01T13:13:34.092Z,13.98
2022-10-01T13:16:24.506Z,19.02
2022-10-01T13:19:25.540Z,20.83
2022-10-01T13:22:09.820Z,19.53
2022-10-01T13:25:20.555Z,14.70
2022-10-01T13:28:16.848Z,12.40
2022-10-01T13:31:02.384Z,12.73
2022-10-01T13:33:33.390Z,10.25
2022-10-01T13:36:05.546Z,15.40
2022-10-01T13:38:42.956Z,10.45
2022-10-01T13:41:32.816Z,9.32
2022-10-01T13:44:27.283Z,11.55
2022-10-01T13:47:07.651Z,10.25
2022-10-01T13:49:37.378Z,7.43
2022-10-01T13:52:06.375Z,6.85
2022-10-01T13:54:49.961Z,9.65
2022-10-01T13:57:37.358Z,13.80
2022-10-01T14:00:18.414Z,7.80
2022-10-01T14:03:23.887Z,46.90
2022-10-01T14:05:58.480Z,42.25
2022-10-01T14:08:34.525Z,25.65
2022-10-01T14:11:27.568Z,13.40
2022-10-01T14:14:17.417Z,10.00
2022-10-01T14:16:47.822Z,14.00
2022-10-01T14:19:21.867Z,13.07
2022-10-01T14:22:17.974Z,10.05
2022-10-01T14:24:45.988Z,10.82
2022-10-01T14:27:28.996Z,10.15
2022-10-01T14:30:34.589Z,11.10
2022-10-01T14:33:38.248Z,13.55
2022-10-01T14:36:40.408Z,11.98
2022-10-01T14:39:21.361Z,10.82
2022-10-01T14:41:51.801Z,7.75
2022-10-01T14:44:21.976Z,8.60
2022-10-01T14:46:54.996Z,14.35
2022-10-01T14:49:30.622Z,9.75
2022-10-01T14:52:21.526Z,10.88
2022-10-01T14:54:52.403Z,12.02
2022-10-01T14:57:38.660Z,7.30
2022-10-01T15:00:15.888Z,8.10
2022-10-01T15:02:49.733Z,8.90
2022-10-01T15:05:29.744Z,10.88
2022-10-01T15:07:58.131Z,8.70
2022-10-01T15:10:27.861Z,8.67
2022-10-01T15:12:57.116Z,13.00
2022-10-01T15:15:34.345Z,11.60
2022-10-01T15:18:05.120Z,13.32
2022-10-01T15:20:33.564Z,11.98
2022-10-01T15:23:01.972Z,8.27
2022-10-01T15:25:31.925Z,7.72
2022-10-01T15:28:00.460Z,9.15
2022-10-01T15:30:28.907Z,8.85
2022-10-01T15:32:57.171Z,10.05
2022-10-01T15:35:25.865Z,13.67
2022-10-01T15:37:54.948Z,7.05
2022-10-01T15:40:30.474Z,13.25
2022-10-01T15:43:08.930Z,12.27
2022-10-01T15:45:36.983Z,13.43
2022-10-01T15:48:05.401Z,10.43
2022-10-01T15:50:39.725Z,8.52
2022-10-01T15:53:22.014Z,16.70
2022-10-01T15:55:52.845Z,17.73
2022-10-01T15:58:35.377Z,15.60
2022-10-01T16:01:09.619Z,13.67
2022-10-01T16:03:51.092Z,7.45
2022-10-01T16:06:28.646Z,9.88
2022-10-01T16:09:19.481Z,10.18
2022-10-01T16:11:59.154Z,9.88
2022-10-01T16:14:39.572Z,7.73
2022-10-01T16:17:20.026Z,8.57
2022-10-01T16:19:53.784Z,16.00
2022-10-01T16:22:25.670Z,13.88
2022-10-01T16:24:55.586Z,13.73
2022-10-01T16:27:35.757Z,18.47
2022-10-01T16:30:12.718Z,14.05
2022-10-01T16:32:40.982Z,13.80
2022-10-01T16:35:17.438Z,11.52
2022-10-01T16:37:49.689Z,12.68
2022-10-01T16:40:21.309Z,10.33
2022-10-01T16:42:50.918Z,13.30
2022-10-01T16:45:24.599Z,12.20
2022-10-01T16:47:56.985Z,11.60
2022-10-01T16:50:25.693Z,11.73
2022-10-01T16:52:56.946Z,12.50
2022-10-01T16:55:30.273Z,10.63
2022-10-01T16:58:11.594Z,14.18
2022-10-01T17:00:40.422Z,12.85
2022-10-01T17:03:16.369Z,13.82
2022-10-01T17:05:45.679Z,11.47
2022-10-01T17:08:15.275Z,16.20
2022-10-01T17:10:46.308Z,18.77
2022-10-01T17:13:16.157Z,12.55
2022-10-01T17:15:44.773Z,18.83
2022-10-01T17:18:14.818Z,16.27
2022-10-01T17:20:44.988Z,18.65
2022-10-01T17:23:17.305Z,18.35
2022-10-01T17:25:47.571Z,21.52
2022-10-01T17:28:21.009Z,23.65
2022-10-01T17:30:51.446Z,22.17
2022-10-01T17:33:21.133Z,20.42
2022-10-01T17:35:56.413Z,20.00
2022-10-01T17:38:25.614Z,20.30
2022-10-01T17:40:56.683Z,19.40
2022-10-01T17:43:25.898Z,21.63
2022-10-01T17:45:59.934Z,19.35
2022-10-01T17:48:30.794Z,22.15
2022-10-01T17:51:10.748Z,25.27
2022-10-01T17:53:42.744Z,32.45
2022-10-01T17:56:18.490Z,25.43
2022-10-01T17:58:47.291Z,17.45
2022-10-01T18:01:20.059Z,32.85
2022-10-01T18:03:53.391Z,24.55
2022-10-01T18:06:21.246Z,26.20
2022-10-01T18:08:56.897Z,35.83
2022-10-01T18:11:27.609Z,20.70
2022-10-01T18:13:56.071Z,26.30
2022-10-01T18:16:25.436Z,22.40
2022-10-01T18:21:47.870Z,29.63
2022-10-01T18:24:16.641Z,24.75
2022-10-01T18:26:46.008Z,17.05
2022-10-01T18:29:27.381Z,18.45
2022-10-01T18:32:18.050Z,19.33
2022-10-01T18:35:01.428Z,21.10
2022-10-01T18:37:39.843Z,34.45
2022-10-01T18:40:15.525Z,26.02
2022-10-01T18:43:00.021Z,24.02
2022-10-01T18:46:00.085Z,25.15
2022-10-01T18:48:51.890Z,29.37
2022-10-01T18:51:52.768Z,25.10
2022-10-01T18:54:26.464Z,31.38
2022-10-01T18:57:38.048Z,29.63
2022-10-01T19:00:14.821Z,15.70
2022-10-01T19:02:58.054Z,15.70
2022-10-01T19:06:13.036Z,17.30
2022-10-01T19:09:00.694Z,24.95
2022-10-01T19:11:51.968Z,19.77
2022-10-01T19:14:42.193Z,20.00
2022-10-01T19:17:13.552Z,28.77
2022-10-01T19:20:12.745Z,20.65
2022-10-01T19:23:11.755Z,16.55
2022-10-01T19:25:48.024Z,15.38
2022-10-01T19:28:33.916Z,15.70
2022-10-01T19:31:23.750Z,15.47
2022-10-01T19:33:59.865Z,15.95
2022-10-01T19:36:35.192Z,15.95
2022-10-01T19:39:09.396Z,15.10
2022-10-01T19:41:59.870Z,15.10
2022-10-01T19:44:42.422Z,17.43
2022-10-01T19:47:34.625Z,15.27
2022-10-01T19:50:16.657Z,17.17
2022-10-01T19:52:48.559Z,14.45
2022-10-01T19:55:18.398Z,21.08
2022-10-01T19:57:46.924Z,16.60
2022-10-01T20:00:22.105Z,14.73
2022-10-01T20:03:18.321Z,13.68
2022-10-01T20:05:55.870Z,17.98
2022-10-01T20:08:40.382Z,13.63
2022-10-01T20:11:14.408Z,13.57
2022-10-01T20:14:00.590Z,9.93
2022-10-01T20:16:41.063Z,11.50
2022-10-01T20:19:29.333Z,11.20
2022-10-01T20:22:12.254Z,7.22
2022-10-01T20:24:58.779Z,6.33
2022-10-01T20:27:55.263Z,5.80
2022-10-01T20:30:24.157Z,7.07
2022-10-01T20:33:36.976Z,4.63
2022-10-01T20:36:16.169Z,3.55
2022-10-01T20:38:50.271Z,6.03
2022-10-01T20:41:20.505Z,5.18
2022-10-01T20:43:53.170Z,3.88
2022-10-01T20:46:35.620Z,7.78
2022-10-01T20:49:11.659Z,4.07
2022-10-01T20:52:03.987Z,4.77
2022-10-01T20:54:37.194Z,4.30
2022-10-01T20:57:16.205Z,2.92
2022-10-01T20:59:48.831Z,3.15
2022-10-01T21:02:29.091Z,3.28
2022-10-01T21:05:05.823Z,2.17
2022-10-01T21:07:49.081Z,2.92
2022-10-01T21:10:39.158Z,4.60
2022-10-01T21:13:27.676Z,3.30
2022-10-01T21:16:06.196Z,4.85
2022-10-01T21:19:02.148Z,4.00
2022-10-01T21:21:56.437Z,3.45
2022-10-01T21:24:59.468Z,3.47
2022-10-01T21:28:01.587Z,18.25
2022-10-01T21:30:45.185Z,18.55
2022-10-01T21:33:27.816Z,25.83
2022-10-01T21:36:23.296Z,12.57
2022-10-01T21:38:59.299Z,5.45
2022-10-01T21:41:49.473Z,4.25
2022-10-01T21:44:55.792Z,3.45
2022-10-01T21:47:26.328Z,2.97
2022-10-01T21:50:11.101Z,1.38
2022-10-01T21:52:48.486Z,1.80
2022-10-01T21:55:47.756Z,1.75
2022-10-01T21:58:44.190Z,2.03
2022-10-01T22:01:39.195Z,1.90
2022-10-01T22:04:13.436Z,4.78
2022-10-01T22:06:51.662Z,4.00
2022-10-01T22:09:35.364Z,2.97
2022-10-01T22:12:06.450Z,2.35
2022-10-01T22:14:34.744Z,2.77
2022-10-01T22:17:22.246Z,1.75
2022-10-01T22:19:53.333Z,2.05
2022-10-01T22:22:21.047Z,3.00
2022-10-01T22:24:53.900Z,18.80
2022-10-01T22:27:44.682Z,15.97
2022-10-01T22:30:34.125Z,8.50
2022-10-01T22:33:10.894Z,18.00
2022-10-01T22:35:44.766Z,16.95
2022-10-01T22:38:33.743Z,16.65
2022-10-01T22:41:11.509Z,14.53
2022-10-01T22:43:42.114Z,12.48
2022-10-01T22:46:43.130Z,6.57
2022-10-01T22:49:11.132Z,3.15
2022-10-01T22:51:56.848Z,4.70
2022-10-01T22:54:46.243Z,3.23
2022-10-01T22:57:19.780Z,2.90
2022-10-01T23:00:11.015Z,3.65
2022-10-01T23:03:29.656Z,6.55
2022-10-01T23:06:06.547Z,4.20
2022-10-01T23:08:55.147Z,5.40
2022-10-01T23:11:50.688Z,5.38
2022-10-01T23:14:50.431Z,4.70
2022-10-01T23:17:23.996Z,3.22
2022-10-01T23:20:12.464Z,1.40
2022-10-01T23:22:55.000Z,7.93
2022-10-01T23:25:37.267Z,1.88
2022-10-01T23:28:39.351Z,2.55
2022-10-01T23:31:13.254Z,1.08
2022-10-01T23:34:17.786Z,2.42
2022-10-01T23:36:57.204Z,2.63
2022-10-01T23:39:43.619Z,2.40
2022-10-01T23:42:35.107Z,2.92
2022-10-01T23:45:15.612Z,2.92
2022-10-01T23:48:21.395Z,2.20
2022-10-01T23:51:02.982Z,1.97
2022-10-01T23:53:41.494Z,3.22
2022-10-01T23:56:34.638Z,2.53
2022-10-01T23:59:21.923Z,4.32
